Significant Other — WDB7278 — position and weather

sailwx.info

Track history (hours):
 
Tides and Currents Weather Stations Pressure Air Temp Water Temp Dewpoint Dewpoint Depression Visibility Wind Speed Wind Dir Waves Ship Positions

Significant Other

More information available from US FCC via Universal Licensing System and Coast Guard Vessel Documentation Center.

Last reported at 2014-Jul-27 23:31 UTC. Time now 2014-Aug-23 05:36 UTC.
Position N 47°33' W 122°38'.
Warning: this ship's position is 26 days out of date.

Length 13 m; draft 2 m.

Type: Sailing vessel. MMSI: 366896730.

Date/timePositionNaut miles runAvg speedWind from/ knotsBaromVisibWave heightAir tempDewpointWater temp
2014-Jul-27 23:31N 47°33' W 122°38'3 3.3
2014-Jul-27 22:32N 47°35' W 122°35'1 0.7
2014-Jul-27 21:04N 47°35' W 122°33'3 5.0
2014-Jul-27 20:32N 47°33' W 122°31'5 4.9
2014-Jul-27 19:32N 47°28' W 122°31'4 4.3
2014-Jul-27 18:32N 47°24' W 122°33'8 7.2
2014-Jul-27 17:26N 47°16' W 122°33'4 0.2
2014-Jul-26 20:32N 47°13' W 122°36'7 7.4
2014-Jul-26 19:33N 47°20' W 122°32'7 5.5
2014-Jul-26 18:15N 47°27' W 122°31'4 5.0
2014-Jul-26 17:23N 47°31' W 122°29'2 5.2
2014-Jul-26 16:55N 47°34' W 122°30'  
Track history (hours):
 
Tides and Currents Weather Stations Pressure Air Temp Water Temp Dewpoint Dewpoint Depression Visibility Wind Speed Wind Dir Waves Ship Positions

Significant Other

More information available from US FCC via Universal Licensing System and Coast Guard Vessel Documentation Center.

Last reported at 2014-Jul-27 23:31 UTC. Time now 2014-Aug-23 05:36 UTC.
Position N 47°33' W 122°38'.
Warning: this ship's position is 26 days out of date.

Length 13 m; draft 2 m.

Type: Sailing vessel. MMSI: 366896730.

Date/timePositionNaut miles runAvg speedWind from/ knotsBaromVisibWave heightAir tempDewpointWater temp
2014-Jul-27 23:31N 47°33' W 122°38'3 3.3
2014-Jul-27 22:32N 47°35' W 122°35'1 0.7
2014-Jul-27 21:04N 47°35' W 122°33'3 5.0
2014-Jul-27 20:32N 47°33' W 122°31'5 4.9
2014-Jul-27 19:32N 47°28' W 122°31'4 4.3
2014-Jul-27 18:32N 47°24' W 122°33'8 7.2
2014-Jul-27 17:26N 47°16' W 122°33'4 0.2
2014-Jul-26 20:32N 47°13' W 122°36'7 7.4
2014-Jul-26 19:33N 47°20' W 122°32'7 5.5
2014-Jul-26 18:15N 47°27' W 122°31'4 5.0
2014-Jul-26 17:23N 47°31' W 122°29'2 5.2
2014-Jul-26 16:55N 47°34' W 122°30'  

Dump ship's entire track history